sensor_id;sensor_type;location;lat;lon;timestamp;P1;durP1;ratioP1;P2;durP2;ratioP2
359;SDS011;168;48.872;9.226;2023-01-29T00:02:04;8.20;;;7.47;;
359;SDS011;168;48.872;9.226;2023-01-29T00:04:33;8.33;;;7.47;;
359;SDS011;168;48.872;9.226;2023-01-29T00:07:00;8.43;;;7.73;;
359;SDS011;168;48.872;9.226;2023-01-29T00:09:27;8.83;;;7.73;;
359;SDS011;168;48.872;9.226;2023-01-29T00:11:56;9.43;;;7.47;;
359;SDS011;168;48.872;9.226;2023-01-29T00:14:23;7.63;;;6.93;;
359;SDS011;168;48.872;9.226;2023-01-29T00:16:52;9.00;;;7.83;;
359;SDS011;168;48.872;9.226;2023-01-29T00:19:19;9.70;;;8.13;;
359;SDS011;168;48.872;9.226;2023-01-29T00:21:48;8.83;;;7.67;;
359;SDS011;168;48.872;9.226;2023-01-29T00:24:15;8.07;;;7.27;;
359;SDS011;168;48.872;9.226;2023-01-29T00:26:43;9.77;;;8.10;;
359;SDS011;168;48.872;9.226;2023-01-29T00:29:10;8.83;;;7.90;;
359;SDS011;168;48.872;9.226;2023-01-29T00:31:37;9.80;;;7.63;;
359;SDS011;168;48.872;9.226;2023-01-29T00:34:04;8.77;;;7.90;;
359;SDS011;168;48.872;9.226;2023-01-29T00:36:32;8.67;;;7.77;;
359;SDS011;168;48.872;9.226;2023-01-29T00:39:01;8.80;;;7.90;;
359;SDS011;168;48.872;9.226;2023-01-29T00:41:35;8.47;;;7.50;;
359;SDS011;168;48.872;9.226;2023-01-29T00:44:20;9.57;;;8.37;;
359;SDS011;168;48.872;9.226;2023-01-29T00:47:05;7.83;;;7.07;;
359;SDS011;168;48.872;9.226;2023-01-29T00:49:53;9.67;;;7.43;;
359;SDS011;168;48.872;9.226;2023-01-29T00:52:20;8.93;;;8.03;;
359;SDS011;168;48.872;9.226;2023-01-29T00:54:52;9.30;;;8.40;;
359;SDS011;168;48.872;9.226;2023-01-29T00:57:21;9.00;;;8.10;;
359;SDS011;168;48.872;9.226;2023-01-29T00:59:49;9.43;;;8.50;;
359;SDS011;168;48.872;9.226;2023-01-29T01:02:16;8.40;;;7.60;;
359;SDS011;168;48.872;9.226;2023-01-29T01:05:01;8.10;;;7.30;;
359;SDS011;168;48.872;9.226;2023-01-29T01:07:30;10.60;;;7.83;;
359;SDS011;168;48.872;9.226;2023-01-29T01:09:59;18.30;;;13.33;;
359;SDS011;168;48.872;9.226;2023-01-29T01:12:44;8.30;;;7.47;;
359;SDS011;168;48.872;9.226;2023-01-29T01:15:11;7.90;;;7.10;;
359;SDS011;168;48.872;9.226;2023-01-29T01:17:39;7.20;;;6.50;;
359;SDS011;168;48.872;9.226;2023-01-29T01:20:07;8.07;;;7.37;;
359;SDS011;168;48.872;9.226;2023-01-29T01:22:35;7.40;;;6.70;;
359;SDS011;168;48.872;9.226;2023-01-29T01:25:04;8.17;;;7.00;;
359;SDS011;168;48.872;9.226;2023-01-29T01:27:32;8.50;;;7.53;;
359;SDS011;168;48.872;9.226;2023-01-29T01:30:02;8.53;;;7.70;;
359;SDS011;168;48.872;9.226;2023-01-29T01:32:30;8.10;;;7.30;;
359;SDS011;168;48.872;9.226;2023-01-29T01:34:57;8.83;;;8.03;;
359;SDS011;168;48.872;9.226;2023-01-29T01:37:25;7.60;;;6.90;;
359;SDS011;168;48.872;9.226;2023-01-29T01:39:52;8.80;;;7.90;;
359;SDS011;168;48.872;9.226;2023-01-29T01:42:27;8.90;;;8.00;;
359;SDS011;168;48.872;9.226;2023-01-29T01:44:57;7.30;;;6.70;;
359;SDS011;168;48.872;9.226;2023-01-29T01:47:27;7.90;;;7.13;;
359;SDS011;168;48.872;9.226;2023-01-29T01:49:59;8.13;;;7.33;;
359;SDS011;168;48.872;9.226;2023-01-29T01:52:32;8.37;;;7.57;;
359;SDS011;168;48.872;9.226;2023-01-29T01:55:03;8.23;;;7.43;;
359;SDS011;168;48.872;9.226;2023-01-29T01:57:33;8.90;;;7.77;;
359;SDS011;168;48.872;9.226;2023-01-29T02:00:03;7.97;;;7.17;;
359;SDS011;168;48.872;9.226;2023-01-29T02:02:36;8.50;;;7.70;;
359;SDS011;168;48.872;9.226;2023-01-29T02:05:22;8.90;;;8.03;;
359;SDS011;168;48.872;9.226;2023-01-29T02:08:08;8.93;;;8.03;;
359;SDS011;168;48.872;9.226;2023-01-29T02:10:52;7.33;;;6.70;;
359;SDS011;168;48.872;9.226;2023-01-29T02:13:22;8.47;;;7.57;;
359;SDS011;168;48.872;9.226;2023-01-29T02:15:49;8.80;;;8.10;;
359;SDS011;168;48.872;9.226;2023-01-29T02:18:17;8.10;;;7.30;;
359;SDS011;168;48.872;9.226;2023-01-29T02:21:00;7.43;;;6.73;;
359;SDS011;168;48.872;9.226;2023-01-29T02:26:49;10.37;;;8.73;;
359;SDS011;168;48.872;9.226;2023-01-29T02:29:27;8.77;;;7.97;;
359;SDS011;168;48.872;9.226;2023-01-29T02:32:05;8.67;;;7.77;;
359;SDS011;168;48.872;9.226;2023-01-29T02:34:44;8.73;;;7.93;;
359;SDS011;168;48.872;9.226;2023-01-29T02:37:35;9.03;;;7.80;;
359;SDS011;168;48.872;9.226;2023-01-29T02:40:10;8.40;;;7.70;;
359;SDS011;168;48.872;9.226;2023-01-29T02:42:44;9.30;;;7.90;;
359;SDS011;168;48.872;9.226;2023-01-29T02:45:18;8.20;;;7.40;;
359;SDS011;168;48.872;9.226;2023-01-29T02:47:55;8.83;;;8.03;;
359;SDS011;168;48.872;9.226;2023-01-29T02:50:25;9.07;;;8.17;;
359;SDS011;168;48.872;9.226;2023-01-29T02:52:58;9.50;;;8.17;;
359;SDS011;168;48.872;9.226;2023-01-29T02:55:32;8.47;;;7.67;;
359;SDS011;168;48.872;9.226;2023-01-29T02:58:06;7.53;;;6.93;;
359;SDS011;168;48.872;9.226;2023-01-29T03:00:40;8.07;;;7.37;;
359;SDS011;168;48.872;9.226;2023-01-29T03:03:11;8.47;;;7.77;;
359;SDS011;168;48.872;9.226;2023-01-29T03:05:44;8.30;;;7.60;;
359;SDS011;168;48.872;9.226;2023-01-29T03:08:19;9.00;;;8.00;;
359;SDS011;168;48.872;9.226;2023-01-29T03:10:54;8.30;;;7.50;;
359;SDS011;168;48.872;9.226;2023-01-29T03:13:28;8.97;;;7.37;;
359;SDS011;168;48.872;9.226;2023-01-29T03:16:03;9.73;;;8.20;;
359;SDS011;168;48.872;9.226;2023-01-29T03:18:35;8.67;;;7.87;;
359;SDS011;168;48.872;9.226;2023-01-29T03:21:12;8.20;;;7.40;;
359;SDS011;168;48.872;9.226;2023-01-29T03:24:01;8.17;;;7.47;;
359;SDS011;168;48.872;9.226;2023-01-29T03:26:47;8.37;;;7.57;;
359;SDS011;168;48.872;9.226;2023-01-29T03:29:33;8.30;;;7.53;;
359;SDS011;168;48.872;9.226;2023-01-29T03:32:20;9.57;;;7.60;;
359;SDS011;168;48.872;9.226;2023-01-29T03:34:53;8.40;;;7.50;;
359;SDS011;168;48.872;9.226;2023-01-29T03:37:26;12.07;;;7.87;;
359;SDS011;168;48.872;9.226;2023-01-29T03:39:57;8.67;;;7.33;;
359;SDS011;168;48.872;9.226;2023-01-29T03:42:26;12.23;;;8.23;;
359;SDS011;168;48.872;9.226;2023-01-29T03:44:59;10.43;;;8.30;;
359;SDS011;168;48.872;9.226;2023-01-29T03:47:37;8.83;;;7.93;;
359;SDS011;168;48.872;9.226;2023-01-29T03:50:11;9.80;;;8.30;;
359;SDS011;168;48.872;9.226;2023-01-29T03:52:45;9.80;;;8.60;;
359;SDS011;168;48.872;9.226;2023-01-29T03:55:19;9.30;;;8.37;;
359;SDS011;168;48.872;9.226;2023-01-29T03:57:52;8.93;;;8.03;;
359;SDS011;168;48.872;9.226;2023-01-29T04:00:25;11.13;;;8.10;;
359;SDS011;168;48.872;9.226;2023-01-29T04:03:04;8.70;;;7.90;;
359;SDS011;168;48.872;9.226;2023-01-29T04:05:39;8.13;;;7.33;;
359;SDS011;168;48.872;9.226;2023-01-29T04:08:13;9.67;;;8.60;;
359;SDS011;168;48.872;9.226;2023-01-29T04:10:46;9.47;;;8.00;;
359;SDS011;168;48.872;9.226;2023-01-29T04:13:17;8.57;;;7.67;;
359;SDS011;168;48.872;9.226;2023-01-29T04:15:47;8.87;;;8.00;;
359;SDS011;168;48.872;9.226;2023-01-29T04:18:20;10.03;;;8.53;;
359;SDS011;168;48.872;9.226;2023-01-29T04:20:47;9.20;;;8.07;;
359;SDS011;168;48.872;9.226;2023-01-29T04:23:19;10.10;;;7.97;;
359;SDS011;168;48.872;9.226;2023-01-29T04:25:50;12.83;;;9.03;;
359;SDS011;168;48.872;9.226;2023-01-29T04:28:25;9.43;;;8.53;;
359;SDS011;168;48.872;9.226;2023-01-29T04:31:00;9.77;;;8.80;;
359;SDS011;168;48.872;9.226;2023-01-29T04:33:33;8.73;;;7.83;;
359;SDS011;168;48.872;9.226;2023-01-29T04:36:17;8.77;;;7.40;;
359;SDS011;168;48.872;9.226;2023-01-29T04:38:56;9.47;;;8.57;;
359;SDS011;168;48.872;9.226;2023-01-29T04:41:45;9.87;;;8.00;;
359;SDS011;168;48.872;9.226;2023-01-29T04:44:19;8.03;;;7.33;;
359;SDS011;168;48.872;9.226;2023-01-29T04:46:53;8.40;;;7.70;;
359;SDS011;168;48.872;9.226;2023-01-29T04:49:32;8.73;;;7.93;;
359;SDS011;168;48.872;9.226;2023-01-29T04:52:11;8.43;;;7.63;;
359;SDS011;168;48.872;9.226;2023-01-29T04:54:49;9.30;;;8.07;;
359;SDS011;168;48.872;9.226;2023-01-29T04:57:21;11.13;;;9.40;;
359;SDS011;168;48.872;9.226;2023-01-29T04:59:55;10.77;;;9.30;;
359;SDS011;168;48.872;9.226;2023-01-29T05:02:26;9.73;;;8.73;;
359;SDS011;168;48.872;9.226;2023-01-29T05:04:55;8.03;;;7.33;;
359;SDS011;168;48.872;9.226;2023-01-29T05:07:24;9.83;;;8.20;;
359;SDS011;168;48.872;9.226;2023-01-29T05:09:54;9.40;;;7.90;;
359;SDS011;168;48.872;9.226;2023-01-29T05:12:22;8.80;;;7.90;;
359;SDS011;168;48.872;9.226;2023-01-29T05:14:54;8.40;;;7.63;;
359;SDS011;168;48.872;9.226;2023-01-29T05:17:26;9.57;;;8.67;;
359;SDS011;168;48.872;9.226;2023-01-29T05:19:55;9.87;;;8.50;;
359;SDS011;168;48.872;9.226;2023-01-29T05:22:23;9.77;;;8.40;;
359;SDS011;168;48.872;9.226;2023-01-29T05:24:51;8.97;;;7.70;;
359;SDS011;168;48.872;9.226;2023-01-29T05:27:19;8.90;;;8.00;;
359;SDS011;168;48.872;9.226;2023-01-29T05:30:06;9.87;;;8.87;;
359;SDS011;168;48.872;9.226;2023-01-29T05:32:34;9.03;;;8.13;;
359;SDS011;168;48.872;9.226;2023-01-29T05:35:06;14.40;;;9.03;;
359;SDS011;168;48.872;9.226;2023-01-29T05:37:33;8.20;;;6.93;;
359;SDS011;168;48.872;9.226;2023-01-29T05:40:01;9.47;;;7.07;;
359;SDS011;168;48.872;9.226;2023-01-29T05:42:28;9.03;;;8.13;;
359;SDS011;168;48.872;9.226;2023-01-29T05:44:55;9.87;;;8.60;;
359;SDS011;168;48.872;9.226;2023-01-29T05:47:23;8.63;;;7.40;;
359;SDS011;168;48.872;9.226;2023-01-29T05:49:50;8.70;;;7.80;;
359;SDS011;168;48.872;9.226;2023-01-29T05:52:19;9.80;;;7.87;;
359;SDS011;168;48.872;9.226;2023-01-29T05:54:46;8.33;;;7.53;;
359;SDS011;168;48.872;9.226;2023-01-29T05:57:13;9.67;;;7.87;;
359;SDS011;168;48.872;9.226;2023-01-29T05:59:41;8.17;;;7.37;;
359;SDS011;168;48.872;9.226;2023-01-29T06:02:08;8.27;;;6.83;;
359;SDS011;168;48.872;9.226;2023-01-29T06:04:35;8.87;;;7.67;;
359;SDS011;168;48.872;9.226;2023-01-29T06:07:03;8.60;;;7.70;;
359;SDS011;168;48.872;9.226;2023-01-29T06:09:31;8.80;;;7.77;;
359;SDS011;168;48.872;9.226;2023-01-29T06:11:59;9.07;;;8.17;;
359;SDS011;168;48.872;9.226;2023-01-29T06:14:26;9.33;;;8.50;;
359;SDS011;168;48.872;9.226;2023-01-29T06:16:53;10.03;;;8.93;;
359;SDS011;168;48.872;9.226;2023-01-29T06:19:21;9.20;;;8.17;;
359;SDS011;168;48.872;9.226;2023-01-29T06:21:48;10.47;;;8.80;;
359;SDS011;168;48.872;9.226;2023-01-29T06:24:15;11.60;;;9.63;;
359;SDS011;168;48.872;9.226;2023-01-29T06:26:44;9.23;;;8.27;;
359;SDS011;168;48.872;9.226;2023-01-29T06:29:11;9.97;;;8.97;;
359;SDS011;168;48.872;9.226;2023-01-29T06:31:39;8.33;;;7.57;;
359;SDS011;168;48.872;9.226;2023-01-29T06:34:06;9.60;;;8.73;;
359;SDS011;168;48.872;9.226;2023-01-29T06:36:33;10.50;;;8.17;;
359;SDS011;168;48.872;9.226;2023-01-29T06:39:01;10.23;;;9.30;;
359;SDS011;168;48.872;9.226;2023-01-29T06:41:28;10.30;;;8.83;;
359;SDS011;168;48.872;9.226;2023-01-29T06:43:57;9.30;;;8.37;;
359;SDS011;168;48.872;9.226;2023-01-29T06:46:24;9.47;;;8.00;;
359;SDS011;168;48.872;9.226;2023-01-29T06:48:52;8.53;;;7.73;;
359;SDS011;168;48.872;9.226;2023-01-29T06:51:19;9.70;;;8.80;;
359;SDS011;168;48.872;9.226;2023-01-29T06:53:47;9.67;;;8.00;;
359;SDS011;168;48.872;9.226;2023-01-29T06:56:14;10.30;;;9.30;;
359;SDS011;168;48.872;9.226;2023-01-29T06:58:42;9.33;;;8.33;;
359;SDS011;168;48.872;9.226;2023-01-29T07:01:11;9.53;;;8.53;;
359;SDS011;168;48.872;9.226;2023-01-29T07:03:39;9.27;;;8.47;;
359;SDS011;168;48.872;9.226;2023-01-29T07:06:08;11.47;;;8.77;;
359;SDS011;168;48.872;9.226;2023-01-29T07:08:36;9.90;;;9.00;;
359;SDS011;168;48.872;9.226;2023-01-29T07:11:04;9.00;;;8.10;;
359;SDS011;168;48.872;9.226;2023-01-29T07:13:32;8.40;;;7.53;;
359;SDS011;168;48.872;9.226;2023-01-29T07:15:59;9.13;;;7.53;;
359;SDS011;168;48.872;9.226;2023-01-29T07:18:29;9.23;;;8.43;;
359;SDS011;168;48.872;9.226;2023-01-29T07:20:57;8.97;;;8.07;;
359;SDS011;168;48.872;9.226;2023-01-29T07:23:26;9.80;;;8.80;;
359;SDS011;168;48.872;9.226;2023-01-29T07:25:53;8.87;;;8.00;;
359;SDS011;168;48.872;9.226;2023-01-29T07:28:20;9.53;;;8.10;;
359;SDS011;168;48.872;9.226;2023-01-29T07:30:48;10.13;;;9.13;;
359;SDS011;168;48.872;9.226;2023-01-29T07:33:15;8.87;;;8.00;;
359;SDS011;168;48.872;9.226;2023-01-29T07:35:44;9.47;;;8.57;;
359;SDS011;168;48.872;9.226;2023-01-29T07:38:11;9.70;;;8.70;;
359;SDS011;168;48.872;9.226;2023-01-29T07:40:39;8.30;;;7.50;;
359;SDS011;168;48.872;9.226;2023-01-29T07:43:06;9.50;;;8.50;;
359;SDS011;168;48.872;9.226;2023-01-29T07:45:36;9.07;;;8.23;;
359;SDS011;168;48.872;9.226;2023-01-29T07:48:05;9.23;;;8.30;;
359;SDS011;168;48.872;9.226;2023-01-29T07:50:33;10.70;;;8.57;;
359;SDS011;168;48.872;9.226;2023-01-29T07:53:03;8.90;;;8.10;;
359;SDS011;168;48.872;9.226;2023-01-29T07:55:30;9.13;;;8.23;;
359;SDS011;168;48.872;9.226;2023-01-29T07:58:00;10.33;;;8.23;;
359;SDS011;168;48.872;9.226;2023-01-29T08:00:28;8.73;;;7.57;;
359;SDS011;168;48.872;9.226;2023-01-29T08:03:00;9.53;;;8.27;;
359;SDS011;168;48.872;9.226;2023-01-29T08:05:29;9.87;;;8.63;;
359;SDS011;168;48.872;9.226;2023-01-29T08:07:56;11.43;;;8.63;;
359;SDS011;168;48.872;9.226;2023-01-29T08:10:25;10.83;;;8.47;;
359;SDS011;168;48.872;9.226;2023-01-29T08:12:54;10.00;;;9.00;;
359;SDS011;168;48.872;9.226;2023-01-29T08:15:22;8.90;;;7.97;;
359;SDS011;168;48.872;9.226;2023-01-29T08:17:50;11.40;;;9.30;;
359;SDS011;168;48.872;9.226;2023-01-29T08:20:18;8.93;;;8.03;;
359;SDS011;168;48.872;9.226;2023-01-29T08:22:46;8.60;;;7.80;;
359;SDS011;168;48.872;9.226;2023-01-29T08:25:14;9.10;;;8.20;;
359;SDS011;168;48.872;9.226;2023-01-29T08:27:43;8.83;;;7.93;;
359;SDS011;168;48.872;9.226;2023-01-29T08:30:11;9.67;;;8.77;;
359;SDS011;168;48.872;9.226;2023-01-29T08:32:38;11.20;;;9.70;;
359;SDS011;168;48.872;9.226;2023-01-29T08:35:06;10.93;;;9.20;;
359;SDS011;168;48.872;9.226;2023-01-29T08:37:34;10.17;;;8.70;;
359;SDS011;168;48.872;9.226;2023-01-29T08:40:01;9.70;;;8.33;;
359;SDS011;168;48.872;9.226;2023-01-29T08:42:28;12.73;;;9.63;;
359;SDS011;168;48.872;9.226;2023-01-29T08:44:57;10.30;;;9.30;;
359;SDS011;168;48.872;9.226;2023-01-29T08:47:24;10.93;;;9.30;;
359;SDS011;168;48.872;9.226;2023-01-29T08:49:52;13.30;;;8.80;;
359;SDS011;168;48.872;9.226;2023-01-29T08:52:19;10.03;;;8.57;;
359;SDS011;168;48.872;9.226;2023-01-29T08:54:46;10.73;;;8.67;;
359;SDS011;168;48.872;9.226;2023-01-29T08:57:14;9.63;;;8.73;;
359;SDS011;168;48.872;9.226;2023-01-29T08:59:41;10.07;;;9.07;;
359;SDS011;168;48.872;9.226;2023-01-29T09:02:10;9.63;;;8.73;;
359;SDS011;168;48.872;9.226;2023-01-29T09:04:38;10.87;;;8.87;;
359;SDS011;168;48.872;9.226;2023-01-29T09:07:05;9.73;;;8.70;;
359;SDS011;168;48.872;9.226;2023-01-29T09:09:32;10.07;;;9.07;;
359;SDS011;168;48.872;9.226;2023-01-29T09:11:59;9.13;;;8.27;;
359;SDS011;168;48.872;9.226;2023-01-29T09:14:27;12.23;;;8.80;;
359;SDS011;168;48.872;9.226;2023-01-29T09:16:54;9.63;;;8.80;;
359;SDS011;168;48.872;9.226;2023-01-29T09:19:23;9.97;;;8.43;;
359;SDS011;168;48.872;9.226;2023-01-29T09:21:50;9.10;;;8.20;;
359;SDS011;168;48.872;9.226;2023-01-29T09:24:17;8.57;;;7.77;;
359;SDS011;168;48.872;9.226;2023-01-29T09:26:45;8.50;;;7.70;;
359;SDS011;168;48.872;9.226;2023-01-29T09:29:12;11.63;;;9.13;;
359;SDS011;168;48.872;9.226;2023-01-29T09:31:40;11.40;;;9.33;;
359;SDS011;168;48.872;9.226;2023-01-29T09:34:07;12.63;;;8.20;;
359;SDS011;168;48.872;9.226;2023-01-29T09:36:36;9.53;;;7.87;;
359;SDS011;168;48.872;9.226;2023-01-29T09:39:03;10.17;;;8.80;;
359;SDS011;168;48.872;9.226;2023-01-29T09:41:34;8.80;;;7.90;;
359;SDS011;168;48.872;9.226;2023-01-29T09:44:12;10.73;;;9.70;;
359;SDS011;168;48.872;9.226;2023-01-29T09:46:48;10.00;;;9.00;;
359;SDS011;168;48.872;9.226;2023-01-29T09:49:20;10.60;;;8.80;;
359;SDS011;168;48.872;9.226;2023-01-29T09:51:55;8.63;;;7.83;;
359;SDS011;168;48.872;9.226;2023-01-29T09:54:28;10.73;;;9.63;;
359;SDS011;168;48.872;9.226;2023-01-29T09:56:59;10.43;;;9.43;;
359;SDS011;168;48.872;9.226;2023-01-29T09:59:28;9.87;;;8.97;;
359;SDS011;168;48.872;9.226;2023-01-29T10:02:04;9.87;;;8.97;;
359;SDS011;168;48.872;9.226;2023-01-29T10:04:48;11.60;;;9.07;;
359;SDS011;168;48.872;9.226;2023-01-29T10:10:30;9.80;;;8.90;;
359;SDS011;168;48.872;9.226;2023-01-29T10:13:10;9.60;;;8.53;;
359;SDS011;168;48.872;9.226;2023-01-29T10:15:49;9.43;;;8.60;;
359;SDS011;168;48.872;9.226;2023-01-29T10:24:44;10.03;;;9.07;;
359;SDS011;168;48.872;9.226;2023-01-29T10:27:18;9.10;;;8.30;;
359;SDS011;168;48.872;9.226;2023-01-29T10:29:47;7.90;;;7.20;;
359;SDS011;168;48.872;9.226;2023-01-29T10:32:18;8.73;;;8.03;;
359;SDS011;168;48.872;9.226;2023-01-29T10:34:48;9.53;;;8.63;;
359;SDS011;168;48.872;9.226;2023-01-29T10:37:21;10.23;;;9.23;;
359;SDS011;168;48.872;9.226;2023-01-29T10:39:53;10.40;;;9.50;;
359;SDS011;168;48.872;9.226;2023-01-29T10:42:23;10.37;;;9.40;;
359;SDS011;168;48.872;9.226;2023-01-29T10:45:02;9.60;;;8.70;;
359;SDS011;168;48.872;9.226;2023-01-29T10:47:55;10.20;;;9.30;;
359;SDS011;168;48.872;9.226;2023-01-29T10:50:51;10.10;;;9.20;;
359;SDS011;168;48.872;9.226;2023-01-29T10:53:29;10.87;;;9.93;;
359;SDS011;168;48.872;9.226;2023-01-29T10:56:11;9.97;;;9.07;;
359;SDS011;168;48.872;9.226;2023-01-29T10:58:49;10.00;;;9.10;;
359;SDS011;168;48.872;9.226;2023-01-29T11:01:19;9.33;;;8.53;;
359;SDS011;168;48.872;9.226;2023-01-29T11:03:48;10.83;;;9.83;;
359;SDS011;168;48.872;9.226;2023-01-29T11:06:23;9.90;;;8.97;;
359;SDS011;168;48.872;9.226;2023-01-29T11:08:55;10.10;;;9.10;;
359;SDS011;168;48.872;9.226;2023-01-29T11:11:30;10.20;;;9.27;;
359;SDS011;168;48.872;9.226;2023-01-29T11:14:02;10.17;;;9.33;;
359;SDS011;168;48.872;9.226;2023-01-29T11:16:39;11.57;;;10.37;;
359;SDS011;168;48.872;9.226;2023-01-29T11:19:07;12.20;;;9.70;;
359;SDS011;168;48.872;9.226;2023-01-29T11:21:49;10.77;;;9.77;;
359;SDS011;168;48.872;9.226;2023-01-29T11:24:18;11.23;;;10.13;;
359;SDS011;168;48.872;9.226;2023-01-29T11:26:48;10.30;;;9.30;;
359;SDS011;168;48.872;9.226;2023-01-29T11:29:28;10.03;;;9.13;;
359;SDS011;168;48.872;9.226;2023-01-29T11:31:58;11.40;;;10.30;;
359;SDS011;168;48.872;9.226;2023-01-29T11:34:28;10.97;;;9.97;;
359;SDS011;168;48.872;9.226;2023-01-29T11:36:57;11.80;;;10.50;;
359;SDS011;168;48.872;9.226;2023-01-29T11:39:26;11.00;;;9.90;;
359;SDS011;168;48.872;9.226;2023-01-29T11:41:56;10.57;;;9.53;;
359;SDS011;168;48.872;9.226;2023-01-29T11:44:29;11.20;;;10.10;;
359;SDS011;168;48.872;9.226;2023-01-29T11:46:58;11.10;;;9.93;;
359;SDS011;168;48.872;9.226;2023-01-29T11:49:37;11.33;;;10.23;;
359;SDS011;168;48.872;9.226;2023-01-29T11:52:06;12.73;;;10.03;;
359;SDS011;168;48.872;9.226;2023-01-29T11:54:36;11.57;;;10.47;;
359;SDS011;168;48.872;9.226;2023-01-29T11:57:18;11.60;;;10.50;;
359;SDS011;168;48.872;9.226;2023-01-29T11:59:53;13.90;;;10.87;;
359;SDS011;168;48.872;9.226;2023-01-29T12:02:28;11.57;;;10.50;;
359;SDS011;168;48.872;9.226;2023-01-29T12:05:01;12.57;;;11.33;;
359;SDS011;168;48.872;9.226;2023-01-29T12:07:31;11.70;;;10.50;;
359;SDS011;168;48.872;9.226;2023-01-29T12:10:00;12.80;;;10.20;;
359;SDS011;168;48.872;9.226;2023-01-29T12:12:33;11.27;;;10.20;;
359;SDS011;168;48.872;9.226;2023-01-29T12:15:14;11.27;;;10.17;;
359;SDS011;168;48.872;9.226;2023-01-29T12:17:51;10.90;;;9.90;;
359;SDS011;168;48.872;9.226;2023-01-29T12:20:25;11.00;;;9.87;;
359;SDS011;168;48.872;9.226;2023-01-29T12:23:00;11.70;;;10.47;;
359;SDS011;168;48.872;9.226;2023-01-29T12:25:35;11.13;;;10.03;;
359;SDS011;168;48.872;9.226;2023-01-29T12:28:14;11.50;;;10.40;;
359;SDS011;168;48.872;9.226;2023-01-29T12:30:53;12.40;;;11.20;;
359;SDS011;168;48.872;9.226;2023-01-29T12:33:36;12.43;;;11.20;;
359;SDS011;168;48.872;9.226;2023-01-29T12:36:08;11.77;;;10.57;;
359;SDS011;168;48.872;9.226;2023-01-29T12:38:42;12.50;;;11.30;;
359;SDS011;168;48.872;9.226;2023-01-29T12:41:13;11.57;;;10.57;;
359;SDS011;168;48.872;9.226;2023-01-29T12:43:58;13.07;;;11.80;;
359;SDS011;168;48.872;9.226;2023-01-29T12:46:32;13.00;;;11.80;;
359;SDS011;168;48.872;9.226;2023-01-29T12:49:08;12.47;;;11.37;;
359;SDS011;168;48.872;9.226;2023-01-29T12:51:39;12.23;;;10.97;;
359;SDS011;168;48.872;9.226;2023-01-29T12:54:15;12.97;;;11.33;;
359;SDS011;168;48.872;9.226;2023-01-29T12:56:48;12.67;;;11.37;;
359;SDS011;168;48.872;9.226;2023-01-29T12:59:23;12.73;;;11.53;;
359;SDS011;168;48.872;9.226;2023-01-29T13:01:56;12.70;;;11.53;;
359;SDS011;168;48.872;9.226;2023-01-29T13:04:29;12.57;;;11.23;;
359;SDS011;168;48.872;9.226;2023-01-29T13:07:06;13.30;;;11.83;;
359;SDS011;168;48.872;9.226;2023-01-29T13:09:38;12.37;;;11.17;;
359;SDS011;168;48.872;9.226;2023-01-29T13:12:11;12.30;;;11.00;;
359;SDS011;168;48.872;9.226;2023-01-29T13:14:44;13.13;;;11.90;;
359;SDS011;168;48.872;9.226;2023-01-29T13:17:17;12.53;;;11.33;;
359;SDS011;168;48.872;9.226;2023-01-29T13:19:49;12.70;;;11.27;;
359;SDS011;168;48.872;9.226;2023-01-29T13:22:21;12.33;;;11.13;;
359;SDS011;168;48.872;9.226;2023-01-29T13:24:50;12.83;;;11.53;;
359;SDS011;168;48.872;9.226;2023-01-29T13:27:20;13.27;;;10.67;;
359;SDS011;168;48.872;9.226;2023-01-29T13:29:52;13.40;;;12.10;;
359;SDS011;168;48.872;9.226;2023-01-29T13:32:22;13.90;;;12.57;;
359;SDS011;168;48.872;9.226;2023-01-29T13:34:53;15.17;;;11.77;;
359;SDS011;168;48.872;9.226;2023-01-29T13:37:25;12.07;;;10.83;;
359;SDS011;168;48.872;9.226;2023-01-29T13:39:57;12.57;;;11.37;;
359;SDS011;168;48.872;9.226;2023-01-29T13:42:32;12.60;;;11.30;;
359;SDS011;168;48.872;9.226;2023-01-29T13:45:07;13.13;;;11.30;;
359;SDS011;168;48.872;9.226;2023-01-29T13:47:43;12.60;;;11.33;;
359;SDS011;168;48.872;9.226;2023-01-29T13:50:16;13.10;;;11.80;;
359;SDS011;168;48.872;9.226;2023-01-29T13:52:45;15.00;;;12.87;;
359;SDS011;168;48.872;9.226;2023-01-29T13:55:21;13.10;;;11.40;;
359;SDS011;168;48.872;9.226;2023-01-29T13:57:55;13.73;;;12.27;;
359;SDS011;168;48.872;9.226;2023-01-29T14:06:40;13.63;;;12.23;;
359;SDS011;168;48.872;9.226;2023-01-29T14:15:15;13.60;;;12.27;;
359;SDS011;168;48.872;9.226;2023-01-29T14:20:52;13.47;;;12.07;;
359;SDS011;168;48.872;9.226;2023-01-29T14:23:27;14.90;;;12.27;;
359;SDS011;168;48.872;9.226;2023-01-29T14:26:23;14.67;;;12.50;;
359;SDS011;168;48.872;9.226;2023-01-29T14:28:56;13.70;;;12.40;;
359;SDS011;168;48.872;9.226;2023-01-29T14:31:29;15.40;;;12.80;;
359;SDS011;168;48.872;9.226;2023-01-29T14:34:03;14.57;;;11.80;;
359;SDS011;168;48.872;9.226;2023-01-29T14:36:39;13.60;;;12.20;;
359;SDS011;168;48.872;9.226;2023-01-29T14:39:19;14.60;;;12.07;;
359;SDS011;168;48.872;9.226;2023-01-29T14:41:50;14.13;;;12.63;;
359;SDS011;168;48.872;9.226;2023-01-29T14:50:50;12.77;;;11.43;;
359;SDS011;168;48.872;9.226;2023-01-29T14:53:39;13.60;;;12.20;;
359;SDS011;168;48.872;9.226;2023-01-29T14:56:14;13.00;;;11.60;;
359;SDS011;168;48.872;9.226;2023-01-29T14:58:47;14.47;;;11.80;;
359;SDS011;168;48.872;9.226;2023-01-29T15:01:18;14.03;;;12.43;;
359;SDS011;168;48.872;9.226;2023-01-29T15:03:49;13.47;;;11.53;;
359;SDS011;168;48.872;9.226;2023-01-29T15:06:21;13.07;;;11.77;;
359;SDS011;168;48.872;9.226;2023-01-29T15:08:56;13.77;;;11.77;;
359;SDS011;168;48.872;9.226;2023-01-29T15:11:33;13.23;;;11.83;;
359;SDS011;168;48.872;9.226;2023-01-29T15:14:13;12.53;;;11.13;;
359;SDS011;168;48.872;9.226;2023-01-29T15:16:53;12.03;;;10.70;;
359;SDS011;168;48.872;9.226;2023-01-29T15:19:28;12.77;;;11.40;;
359;SDS011;168;48.872;9.226;2023-01-29T15:22:02;14.20;;;12.70;;
359;SDS011;168;48.872;9.226;2023-01-29T15:24:34;14.27;;;12.07;;
359;SDS011;168;48.872;9.226;2023-01-29T15:27:02;15.27;;;12.87;;
359;SDS011;168;48.872;9.226;2023-01-29T15:29:31;12.37;;;10.77;;
359;SDS011;168;48.872;9.226;2023-01-29T15:31:58;16.03;;;12.50;;
359;SDS011;168;48.872;9.226;2023-01-29T15:34:27;13.70;;;12.20;;
359;SDS011;168;48.872;9.226;2023-01-29T15:36:54;14.40;;;12.90;;
359;SDS011;168;48.872;9.226;2023-01-29T15:39:24;13.73;;;11.67;;
359;SDS011;168;48.872;9.226;2023-01-29T15:42:03;14.20;;;11.93;;
359;SDS011;168;48.872;9.226;2023-01-29T15:44:36;15.10;;;12.50;;
359;SDS011;168;48.872;9.226;2023-01-29T15:47:10;14.20;;;12.70;;
359;SDS011;168;48.872;9.226;2023-01-29T15:49:39;14.40;;;12.45;;
359;SDS011;168;48.872;9.226;2023-01-29T15:52:07;14.90;;;12.17;;
359;SDS011;168;48.872;9.226;2023-01-29T15:54:42;15.77;;;12.77;;
359;SDS011;168;48.872;9.226;2023-01-29T15:57:12;17.00;;;14.10;;
359;SDS011;168;48.872;9.226;2023-01-29T15:59:46;15.33;;;13.23;;
359;SDS011;168;48.872;9.226;2023-01-29T16:02:34;12.70;;;11.40;;
359;SDS011;168;48.872;9.226;2023-01-29T16:05:04;14.17;;;12.67;;
359;SDS011;168;48.872;9.226;2023-01-29T16:07:37;12.93;;;11.63;;
359;SDS011;168;48.872;9.226;2023-01-29T16:10:10;15.93;;;12.80;;
359;SDS011;168;48.872;9.226;2023-01-29T16:12:42;15.60;;;13.40;;
359;SDS011;168;48.872;9.226;2023-01-29T16:15:26;12.60;;;11.27;;
359;SDS011;168;48.872;9.226;2023-01-29T16:17:57;14.97;;;12.60;;
359;SDS011;168;48.872;9.226;2023-01-29T16:20:32;15.83;;;12.90;;
359;SDS011;168;48.872;9.226;2023-01-29T16:23:03;14.70;;;12.70;;
359;SDS011;168;48.872;9.226;2023-01-29T16:25:34;14.40;;;12.40;;
359;SDS011;168;48.872;9.226;2023-01-29T16:28:04;13.03;;;11.63;;
359;SDS011;168;48.872;9.226;2023-01-29T16:30:35;13.30;;;11.40;;
359;SDS011;168;48.872;9.226;2023-01-29T16:33:05;14.97;;;11.77;;
359;SDS011;168;48.872;9.226;2023-01-29T16:35:36;15.47;;;12.23;;
359;SDS011;168;48.872;9.226;2023-01-29T16:38:05;13.00;;;11.63;;
359;SDS011;168;48.872;9.226;2023-01-29T16:41:04;18.47;;;13.63;;